Bandon, OR (97411)

4:26 AM PDT on October 23, 2014 (GMT -0700)
KORBANDO2 | Change Station
CLOSE
Current Station
Personal Weather Station
Location: Bandon, OR
Elevation: 77 ft
Nearby Weather Stations

Elev 77 ft 43.12 °N, 124.43 °W | Updated 56 seconds ago

Overcast
Overcast
57.8 °F
Feels Like 57.8 °F
N
10.0
Wind Variable Wind from SSW
Gusts 16.0 mph

Today
High -- | Low -- °F
--% Chance of Precip.
Yesterday
High -- | Low -- °F
Precip. -- in
7:41 AM 6:22 PM
Waning Crescent, 0% visible
Pressure 29.81 in
Visibility 10.0 miles
Clouds Overcast 1400 ft
Dew Point 57 °F
Humidity 96%
Rainfall 0.02 in
Snow Depth Not available.
UV 0 out of 12
Pollen .30 out of 12
Air Quality Not available.
Flu Activity Sporadic
METAR KOTH 231115Z 18007KT 10SM OVC014 16/16 A2981 RMK AO1

More Conditions Fewer Conditions

Pressure 29.81 in
Visibility 10.0 miles
Clouds Overcast 1400 ft
Dew Point 57 °F
Humidity 96%
Rainfall 0.02 in
Snow Depth Not available.
UV 0 out of 12
Pollen .30 out of 12
Air Quality Not available.
Flu Activity Sporadic
METAR KOTH 231115Z 18007KT 10SM OVC014 16/16 A2981 RMK AO1

More Conditions Fewer Conditions

10-Day Weather Forecast

Almanac

Astronomy

Oct. 23, 2014 Rise Set
Actual Time 7:41 AM PDT 6:22 PM PDT
Civil Twilight 7:12 AM PDT 6:51 PM PDT
Nautical Twilight 6:38 AM PDT 7:24 PM PDT
Astronomical Twilight 6:05 AM PDT 7:57 PM PDT
Moon 7:26 AM PDT 6:27 PM PDT
Length of Visible Light 11h 38m
Length of Day
10h 40m
Tomorrow will be 2m 44s shorter.
Waning Crescent, 0% of the Moon is Illuminated
Today
Waning Crescent
Oct 23
New
Oct 30
First Quarter
Nov 6
Full
Nov 14
Last Quarter

Today's Extremes

State Highs State Lows

Community

WunderPhotos

Upload Photos

1,764,206 photos uploaded!

Nearby

Snow Depth

Station Depth Elevation
King Mountain 0 in 4000 ft
Holland Meadows 0 in 4900 ft
Big Red Mountain 0 in 6250 ft
Fish Lake 0 in 4665 ft
Annie Springs 0 in 6020 ft

Earthquake Activity

City Distance Mag. Time & Date
Crescent City, California 104 miles 2.6 1:22 AM PDT
2014-10-21
Minimum magnitude displayed is 2.5.

Coastal Water Temperatures

Place Temperature
Port Orford, OR 60.1 °F
Charleston, OR 57.9 °F
South Beach, OR 60.1 °F

Nearby Weather Stations